sensor_id;sensor_type;location;lat;lon;timestamp;temperature;humidity
20735;DHT22;10528;52.124;5.196;2023-02-02T00:01:34;8.60;99.90
20735;DHT22;10528;52.124;5.196;2023-02-02T00:04:02;8.60;99.90
20735;DHT22;10528;52.124;5.196;2023-02-02T00:06:30;8.50;99.90
20735;DHT22;10528;52.124;5.196;2023-02-02T00:08:59;8.50;99.90
20735;DHT22;10528;52.124;5.196;2023-02-02T00:11:27;8.50;99.90
20735;DHT22;10528;52.124;5.196;2023-02-02T00:13:54;8.50;99.90
20735;DHT22;10528;52.124;5.196;2023-02-02T00:19:44;8.50;99.90
20735;DHT22;10528;52.124;5.196;2023-02-02T00:21:54;8.50;99.90
20735;DHT22;10528;52.124;5.196;2023-02-02T00:24:21;8.40;99.90
20735;DHT22;10528;52.124;5.196;2023-02-02T00:26:52;8.40;99.90
20735;DHT22;10528;52.124;5.196;2023-02-02T00:29:24;8.40;99.90
20735;DHT22;10528;52.124;5.196;2023-02-02T00:31:53;8.50;99.90
20735;DHT22;10528;52.124;5.196;2023-02-02T00:34:21;8.50;99.90
20735;DHT22;10528;52.124;5.196;2023-02-02T00:36:49;8.50;99.90
20735;DHT22;10528;52.124;5.196;2023-02-02T00:39:19;8.50;99.90
20735;DHT22;10528;52.124;5.196;2023-02-02T00:41:48;8.50;99.90
20735;DHT22;10528;52.124;5.196;2023-02-02T00:44:15;8.40;99.90
20735;DHT22;10528;52.124;5.196;2023-02-02T00:47:01;8.40;99.90
20735;DHT22;10528;52.124;5.196;2023-02-02T00:49:29;8.40;99.90
20735;DHT22;10528;52.124;5.196;2023-02-02T00:51:56;8.30;99.90
20735;DHT22;10528;52.124;5.196;2023-02-02T00:54:24;8.30;99.90
20735;DHT22;10528;52.124;5.196;2023-02-02T00:56:50;8.30;99.90
20735;DHT22;10528;52.124;5.196;2023-02-02T00:59:17;8.30;99.90
20735;DHT22;10528;52.124;5.196;2023-02-02T01:01:44;8.20;99.90
20735;DHT22;10528;52.124;5.196;2023-02-02T01:04:11;8.20;99.90
20735;DHT22;10528;52.124;5.196;2023-02-02T01:06:38;8.20;99.90
20735;DHT22;10528;52.124;5.196;2023-02-02T01:09:07;8.10;99.90
20735;DHT22;10528;52.124;5.196;2023-02-02T01:11:33;8.10;99.90
20735;DHT22;10528;52.124;5.196;2023-02-02T01:14:01;8.00;99.90
20735;DHT22;10528;52.124;5.196;2023-02-02T01:16:28;8.00;99.90
20735;DHT22;10528;52.124;5.196;2023-02-02T01:18:55;7.90;99.90
20735;DHT22;10528;52.124;5.196;2023-02-02T01:21:22;7.90;99.90
20735;DHT22;10528;52.124;5.196;2023-02-02T01:23:49;7.90;99.90
20735;DHT22;10528;52.124;5.196;2023-02-02T01:26:16;7.90;99.90
20735;DHT22;10528;52.124;5.196;2023-02-02T01:28:44;7.90;99.90
20735;DHT22;10528;52.124;5.196;2023-02-02T01:31:14;7.90;99.90
20735;DHT22;10528;52.124;5.196;2023-02-02T01:33:44;7.90;99.90
20735;DHT22;10528;52.124;5.196;2023-02-02T01:36:14;7.90;99.90
20735;DHT22;10528;52.124;5.196;2023-02-02T01:38:43;7.90;99.90
20735;DHT22;10528;52.124;5.196;2023-02-02T01:41:20;7.90;99.90
20735;DHT22;10528;52.124;5.196;2023-02-02T01:43:55;7.90;99.90
20735;DHT22;10528;52.124;5.196;2023-02-02T01:46:30;7.90;99.90
20735;DHT22;10528;52.124;5.196;2023-02-02T01:49:00;7.90;99.90
20735;DHT22;10528;52.124;5.196;2023-02-02T01:54:29;8.00;99.90
20735;DHT22;10528;52.124;5.196;2023-02-02T01:57:03;7.90;99.90
20735;DHT22;10528;52.124;5.196;2023-02-02T01:59:34;8.00;99.90
20735;DHT22;10528;52.124;5.196;2023-02-02T02:02:02;7.90;99.90
20735;DHT22;10528;52.124;5.196;2023-02-02T02:04:30;7.90;99.90
20735;DHT22;10528;52.124;5.196;2023-02-02T02:07:00;8.00;99.90
20735;DHT22;10528;52.124;5.196;2023-02-02T02:09:34;8.00;99.90
20735;DHT22;10528;52.124;5.196;2023-02-02T02:12:02;8.00;99.90
20735;DHT22;10528;52.124;5.196;2023-02-02T02:14:29;8.00;99.90
20735;DHT22;10528;52.124;5.196;2023-02-02T02:20:41;8.10;99.90
20735;DHT22;10528;52.124;5.196;2023-02-02T02:27:12;8.10;99.90
20735;DHT22;10528;52.124;5.196;2023-02-02T02:33:14;8.20;99.90
20735;DHT22;10528;52.124;5.196;2023-02-02T02:35:53;8.20;99.90
20735;DHT22;10528;52.124;5.196;2023-02-02T02:38:44;8.20;99.90
20735;DHT22;10528;52.124;5.196;2023-02-02T02:41:20;8.30;99.90
20735;DHT22;10528;52.124;5.196;2023-02-02T02:44:03;8.30;99.90
20735;DHT22;10528;52.124;5.196;2023-02-02T02:46:34;8.20;99.90
20735;DHT22;10528;52.124;5.196;2023-02-02T02:49:02;8.30;99.90
20735;DHT22;10528;52.124;5.196;2023-02-02T02:51:50;8.20;99.90
20735;DHT22;10528;52.124;5.196;2023-02-02T02:54:32;8.30;99.90
20735;DHT22;10528;52.124;5.196;2023-02-02T03:00:17;8.30;99.90
20735;DHT22;10528;52.124;5.196;2023-02-02T03:06:21;8.30;99.90
20735;DHT22;10528;52.124;5.196;2023-02-02T03:09:17;8.30;99.90
20735;DHT22;10528;52.124;5.196;2023-02-02T03:11:48;8.40;99.90
20735;DHT22;10528;52.124;5.196;2023-02-02T03:14:15;8.40;99.90
20735;DHT22;10528;52.124;5.196;2023-02-02T03:16:42;8.30;99.90
20735;DHT22;10528;52.124;5.196;2023-02-02T03:19:09;8.40;99.90
20735;DHT22;10528;52.124;5.196;2023-02-02T03:21:36;8.30;99.90
20735;DHT22;10528;52.124;5.196;2023-02-02T03:24:03;8.30;99.90
20735;DHT22;10528;52.124;5.196;2023-02-02T03:26:30;8.40;99.90
20735;DHT22;10528;52.124;5.196;2023-02-02T03:28:57;8.40;99.90
20735;DHT22;10528;52.124;5.196;2023-02-02T03:31:25;8.40;99.90
20735;DHT22;10528;52.124;5.196;2023-02-02T03:33:54;8.50;99.90
20735;DHT22;10528;52.124;5.196;2023-02-02T03:36:22;8.50;99.90
20735;DHT22;10528;52.124;5.196;2023-02-02T03:38:49;8.40;99.90
20735;DHT22;10528;52.124;5.196;2023-02-02T03:41:15;8.50;99.90
20735;DHT22;10528;52.124;5.196;2023-02-02T03:43:42;8.50;99.90
20735;DHT22;10528;52.124;5.196;2023-02-02T03:46:09;8.50;99.90
20735;DHT22;10528;52.124;5.196;2023-02-02T03:48:37;8.50;99.90
20735;DHT22;10528;52.124;5.196;2023-02-02T03:51:06;8.50;99.90
20735;DHT22;10528;52.124;5.196;2023-02-02T03:53:38;8.60;99.90
20735;DHT22;10528;52.124;5.196;2023-02-02T03:56:05;8.60;99.90
20735;DHT22;10528;52.124;5.196;2023-02-02T03:58:32;8.60;99.90
20735;DHT22;10528;52.124;5.196;2023-02-02T04:01:08;8.60;99.90
20735;DHT22;10528;52.124;5.196;2023-02-02T04:03:37;8.60;99.90
20735;DHT22;10528;52.124;5.196;2023-02-02T04:06:04;8.60;99.90
20735;DHT22;10528;52.124;5.196;2023-02-02T04:08:31;8.70;99.90
20735;DHT22;10528;52.124;5.196;2023-02-02T04:10:59;8.70;99.90
20735;DHT22;10528;52.124;5.196;2023-02-02T04:13:26;8.60;99.90
20735;DHT22;10528;52.124;5.196;2023-02-02T04:16:00;8.60;99.90
20735;DHT22;10528;52.124;5.196;2023-02-02T04:18:27;8.60;99.90
20735;DHT22;10528;52.124;5.196;2023-02-02T04:20:58;8.60;99.90
20735;DHT22;10528;52.124;5.196;2023-02-02T04:23:27;8.60;99.90
20735;DHT22;10528;52.124;5.196;2023-02-02T04:25:55;8.70;99.90
20735;DHT22;10528;52.124;5.196;2023-02-02T04:28:25;8.70;99.90
20735;DHT22;10528;52.124;5.196;2023-02-02T04:30:53;8.60;99.90
20735;DHT22;10528;52.124;5.196;2023-02-02T04:33:23;8.70;99.90
20735;DHT22;10528;52.124;5.196;2023-02-02T04:35:51;8.70;99.90
20735;DHT22;10528;52.124;5.196;2023-02-02T04:38:18;8.70;99.90
20735;DHT22;10528;52.124;5.196;2023-02-02T04:40:46;8.70;99.90
20735;DHT22;10528;52.124;5.196;2023-02-02T04:43:13;8.70;99.90
20735;DHT22;10528;52.124;5.196;2023-02-02T04:45:41;8.80;99.90
20735;DHT22;10528;52.124;5.196;2023-02-02T04:48:08;8.80;99.90
20735;DHT22;10528;52.124;5.196;2023-02-02T04:50:34;8.80;99.90
20735;DHT22;10528;52.124;5.196;2023-02-02T04:53:02;8.80;99.90
20735;DHT22;10528;52.124;5.196;2023-02-02T04:55:29;8.70;99.90
20735;DHT22;10528;52.124;5.196;2023-02-02T04:57:56;8.80;99.90
20735;DHT22;10528;52.124;5.196;2023-02-02T05:00:23;8.80;99.90
20735;DHT22;10528;52.124;5.196;2023-02-02T05:02:50;8.80;99.90
20735;DHT22;10528;52.124;5.196;2023-02-02T05:05:17;8.90;99.90
20735;DHT22;10528;52.124;5.196;2023-02-02T05:07:45;8.80;99.90
20735;DHT22;10528;52.124;5.196;2023-02-02T05:10:12;8.80;99.90
20735;DHT22;10528;52.124;5.196;2023-02-02T05:12:39;8.80;99.90
20735;DHT22;10528;52.124;5.196;2023-02-02T05:15:06;8.80;99.90
20735;DHT22;10528;52.124;5.196;2023-02-02T05:17:33;8.80;99.90
20735;DHT22;10528;52.124;5.196;2023-02-02T05:20:00;8.80;99.90
20735;DHT22;10528;52.124;5.196;2023-02-02T05:22:27;8.80;99.90
20735;DHT22;10528;52.124;5.196;2023-02-02T05:24:54;8.70;99.90
20735;DHT22;10528;52.124;5.196;2023-02-02T05:27:21;8.70;99.90
20735;DHT22;10528;52.124;5.196;2023-02-02T05:29:47;8.80;99.90
20735;DHT22;10528;52.124;5.196;2023-02-02T05:32:14;8.80;99.90
20735;DHT22;10528;52.124;5.196;2023-02-02T05:34:41;8.80;99.90
20735;DHT22;10528;52.124;5.196;2023-02-02T05:37:08;8.90;99.90
20735;DHT22;10528;52.124;5.196;2023-02-02T05:39:35;8.90;99.90
20735;DHT22;10528;52.124;5.196;2023-02-02T05:42:02;8.80;99.90
20735;DHT22;10528;52.124;5.196;2023-02-02T05:44:29;8.80;99.90
20735;DHT22;10528;52.124;5.196;2023-02-02T05:46:56;8.80;99.90
20735;DHT22;10528;52.124;5.196;2023-02-02T05:49:23;8.80;99.90
20735;DHT22;10528;52.124;5.196;2023-02-02T05:51:55;8.80;99.90
20735;DHT22;10528;52.124;5.196;2023-02-02T05:54:23;8.80;99.90
20735;DHT22;10528;52.124;5.196;2023-02-02T05:56:52;8.80;99.90
20735;DHT22;10528;52.124;5.196;2023-02-02T05:59:20;8.70;99.90
20735;DHT22;10528;52.124;5.196;2023-02-02T06:01:47;8.80;99.90
20735;DHT22;10528;52.124;5.196;2023-02-02T06:04:15;8.70;99.90
20735;DHT22;10528;52.124;5.196;2023-02-02T06:06:42;8.70;99.90
20735;DHT22;10528;52.124;5.196;2023-02-02T06:09:09;8.70;99.90
20735;DHT22;10528;52.124;5.196;2023-02-02T06:11:36;8.70;99.90
20735;DHT22;10528;52.124;5.196;2023-02-02T06:14:05;8.60;99.90
20735;DHT22;10528;52.124;5.196;2023-02-02T06:16:33;8.70;99.90
20735;DHT22;10528;52.124;5.196;2023-02-02T06:19:00;8.60;99.90
20735;DHT22;10528;52.124;5.196;2023-02-02T06:21:27;8.70;99.90
20735;DHT22;10528;52.124;5.196;2023-02-02T06:23:57;8.60;99.90
20735;DHT22;10528;52.124;5.196;2023-02-02T06:26:25;8.60;99.90
20735;DHT22;10528;52.124;5.196;2023-02-02T06:28:53;8.60;99.90
20735;DHT22;10528;52.124;5.196;2023-02-02T06:31:20;8.60;99.90
20735;DHT22;10528;52.124;5.196;2023-02-02T06:33:53;8.60;99.90
20735;DHT22;10528;52.124;5.196;2023-02-02T06:36:22;8.60;99.90
20735;DHT22;10528;52.124;5.196;2023-02-02T06:38:51;8.60;99.90
20735;DHT22;10528;52.124;5.196;2023-02-02T06:41:19;8.60;99.90
20735;DHT22;10528;52.124;5.196;2023-02-02T06:43:47;8.60;99.90
20735;DHT22;10528;52.124;5.196;2023-02-02T06:46:15;8.60;99.90
20735;DHT22;10528;52.124;5.196;2023-02-02T06:48:42;8.60;99.90
20735;DHT22;10528;52.124;5.196;2023-02-02T06:51:09;8.60;99.90
20735;DHT22;10528;52.124;5.196;2023-02-02T06:53:36;8.60;99.90
20735;DHT22;10528;52.124;5.196;2023-02-02T06:56:06;8.60;99.90
20735;DHT22;10528;52.124;5.196;2023-02-02T06:58:37;8.50;99.90
20735;DHT22;10528;52.124;5.196;2023-02-02T07:01:09;8.50;99.90
20735;DHT22;10528;52.124;5.196;2023-02-02T07:03:37;8.50;99.90
20735;DHT22;10528;52.124;5.196;2023-02-02T07:06:18;8.50;99.90
20735;DHT22;10528;52.124;5.196;2023-02-02T07:08:50;8.50;99.90
20735;DHT22;10528;52.124;5.196;2023-02-02T07:11:29;8.50;99.90
20735;DHT22;10528;52.124;5.196;2023-02-02T07:14:01;8.40;99.90
20735;DHT22;10528;52.124;5.196;2023-02-02T07:16:29;8.40;99.90
20735;DHT22;10528;52.124;5.196;2023-02-02T07:18:57;8.50;99.90
20735;DHT22;10528;52.124;5.196;2023-02-02T07:21:25;8.40;99.90
20735;DHT22;10528;52.124;5.196;2023-02-02T07:24:01;8.40;99.90
20735;DHT22;10528;52.124;5.196;2023-02-02T07:26:30;8.40;99.90
20735;DHT22;10528;52.124;5.196;2023-02-02T07:28:57;8.50;99.90
20735;DHT22;10528;52.124;5.196;2023-02-02T07:31:25;8.40;99.90
20735;DHT22;10528;52.124;5.196;2023-02-02T07:33:53;8.50;99.90
20735;DHT22;10528;52.124;5.196;2023-02-02T07:36:21;8.60;99.90
20735;DHT22;10528;52.124;5.196;2023-02-02T07:38:51;8.60;99.90
20735;DHT22;10528;52.124;5.196;2023-02-02T07:41:20;8.60;99.90
20735;DHT22;10528;52.124;5.196;2023-02-02T07:43:48;8.60;99.90
20735;DHT22;10528;52.124;5.196;2023-02-02T07:46:16;8.70;99.90
20735;DHT22;10528;52.124;5.196;2023-02-02T07:48:44;8.70;99.90
20735;DHT22;10528;52.124;5.196;2023-02-02T07:51:13;8.80;99.90
20735;DHT22;10528;52.124;5.196;2023-02-02T07:53:43;8.70;99.90
20735;DHT22;10528;52.124;5.196;2023-02-02T07:56:16;8.80;99.90
20735;DHT22;10528;52.124;5.196;2023-02-02T07:58:46;8.80;99.90
20735;DHT22;10528;52.124;5.196;2023-02-02T08:01:14;8.70;99.90
20735;DHT22;10528;52.124;5.196;2023-02-02T08:03:42;8.80;99.90
20735;DHT22;10528;52.124;5.196;2023-02-02T08:06:13;8.90;99.90
20735;DHT22;10528;52.124;5.196;2023-02-02T08:08:43;8.90;99.90
20735;DHT22;10528;52.124;5.196;2023-02-02T08:11:11;9.00;99.90
20735;DHT22;10528;52.124;5.196;2023-02-02T08:13:40;9.10;99.90
20735;DHT22;10528;52.124;5.196;2023-02-02T08:16:08;9.10;99.90
20735;DHT22;10528;52.124;5.196;2023-02-02T08:18:37;9.00;99.90
20735;DHT22;10528;52.124;5.196;2023-02-02T08:21:06;8.90;99.90
20735;DHT22;10528;52.124;5.196;2023-02-02T08:23:37;8.90;99.90
20735;DHT22;10528;52.124;5.196;2023-02-02T08:26:10;8.80;99.90
20735;DHT22;10528;52.124;5.196;2023-02-02T08:28:38;8.80;99.90
20735;DHT22;10528;52.124;5.196;2023-02-02T08:31:07;8.90;99.90
20735;DHT22;10528;52.124;5.196;2023-02-02T08:33:37;9.00;99.90
20735;DHT22;10528;52.124;5.196;2023-02-02T08:36:16;9.00;99.90
20735;DHT22;10528;52.124;5.196;2023-02-02T08:38:45;9.00;99.90
20735;DHT22;10528;52.124;5.196;2023-02-02T08:41:15;8.90;99.90
20735;DHT22;10528;52.124;5.196;2023-02-02T08:43:43;9.00;99.90
20735;DHT22;10528;52.124;5.196;2023-02-02T08:46:13;9.00;99.90
20735;DHT22;10528;52.124;5.196;2023-02-02T08:48:42;9.00;99.90
20735;DHT22;10528;52.124;5.196;2023-02-02T08:51:11;9.10;99.90
20735;DHT22;10528;52.124;5.196;2023-02-02T08:53:41;9.00;99.90
20735;DHT22;10528;52.124;5.196;2023-02-02T08:56:20;9.10;99.90
20735;DHT22;10528;52.124;5.196;2023-02-02T08:58:50;9.10;99.90
20735;DHT22;10528;52.124;5.196;2023-02-02T09:01:23;9.10;99.90
20735;DHT22;10528;52.124;5.196;2023-02-02T09:03:57;9.10;99.90
20735;DHT22;10528;52.124;5.196;2023-02-02T09:06:38;9.10;99.90
20735;DHT22;10528;52.124;5.196;2023-02-02T09:09:08;9.10;99.90
20735;DHT22;10528;52.124;5.196;2023-02-02T09:11:38;9.10;99.90
20735;DHT22;10528;52.124;5.196;2023-02-02T09:14:06;9.10;99.90
20735;DHT22;10528;52.124;5.196;2023-02-02T09:16:34;9.20;99.90
20735;DHT22;10528;52.124;5.196;2023-02-02T09:19:02;9.20;99.90
20735;DHT22;10528;52.124;5.196;2023-02-02T09:21:30;9.20;99.90
20735;DHT22;10528;52.124;5.196;2023-02-02T09:24:07;9.30;99.90
20735;DHT22;10528;52.124;5.196;2023-02-02T09:26:36;9.40;99.90
20735;DHT22;10528;52.124;5.196;2023-02-02T09:29:07;9.40;99.90
20735;DHT22;10528;52.124;5.196;2023-02-02T09:31:38;9.40;99.90
20735;DHT22;10528;52.124;5.196;2023-02-02T09:34:10;9.50;99.90
20735;DHT22;10528;52.124;5.196;2023-02-02T09:36:40;9.40;99.90
20735;DHT22;10528;52.124;5.196;2023-02-02T09:39:10;9.40;99.90
20735;DHT22;10528;52.124;5.196;2023-02-02T09:42:23;9.40;99.90
20735;DHT22;10528;52.124;5.196;2023-02-02T09:46:07;9.30;99.90
20735;DHT22;10528;52.124;5.196;2023-02-02T09:48:25;9.40;99.90
20735;DHT22;10528;52.124;5.196;2023-02-02T09:51:04;9.30;99.90
20735;DHT22;10528;52.124;5.196;2023-02-02T09:56:38;9.30;99.90
20735;DHT22;10528;52.124;5.196;2023-02-02T09:59:13;9.30;99.90
20735;DHT22;10528;52.124;5.196;2023-02-02T10:01:53;9.40;99.90
20735;DHT22;10528;52.124;5.196;2023-02-02T10:04:36;9.40;99.90
20735;DHT22;10528;52.124;5.196;2023-02-02T10:07:14;9.50;99.90
20735;DHT22;10528;52.124;5.196;2023-02-02T10:09:57;9.40;99.90
20735;DHT22;10528;52.124;5.196;2023-02-02T10:12:33;9.40;99.90
20735;DHT22;10528;52.124;5.196;2023-02-02T10:18:22;9.50;99.90
20735;DHT22;10528;52.124;5.196;2023-02-02T10:21:11;9.60;99.90
20735;DHT22;10528;52.124;5.196;2023-02-02T10:23:52;9.50;99.90
20735;DHT22;10528;52.124;5.196;2023-02-02T10:26:22;9.40;99.90
20735;DHT22;10528;52.124;5.196;2023-02-02T10:32:19;9.50;99.90
20735;DHT22;10528;52.124;5.196;2023-02-02T10:37:46;9.50;99.90
20735;DHT22;10528;52.124;5.196;2023-02-02T10:46:36;9.50;99.90
20735;DHT22;10528;52.124;5.196;2023-02-02T10:54:58;9.60;99.90
20735;DHT22;10528;52.124;5.196;2023-02-02T11:00:48;9.60;99.90
20735;DHT22;10528;52.124;5.196;2023-02-02T11:03:21;9.60;99.90
20735;DHT22;10528;52.124;5.196;2023-02-02T11:05:52;9.60;99.90
20735;DHT22;10528;52.124;5.196;2023-02-02T11:08:43;9.70;99.90
20735;DHT22;10528;52.124;5.196;2023-02-02T11:11:29;9.60;99.90
20735;DHT22;10528;52.124;5.196;2023-02-02T11:14:12;9.70;99.90
20735;DHT22;10528;52.124;5.196;2023-02-02T11:16:44;9.70;99.90
20735;DHT22;10528;52.124;5.196;2023-02-02T11:21:49;9.90;99.90
20735;DHT22;10528;52.124;5.196;2023-02-02T11:27:18;9.80;99.90
20735;DHT22;10528;52.124;5.196;2023-02-02T11:29:57;9.80;99.90
20735;DHT22;10528;52.124;5.196;2023-02-02T11:32:28;9.90;99.90
20735;DHT22;10528;52.124;5.196;2023-02-02T11:37:31;10.00;99.90
20735;DHT22;10528;52.124;5.196;2023-02-02T11:43:49;10.00;99.90
20735;DHT22;10528;52.124;5.196;2023-02-02T11:46:30;9.90;99.90
20735;DHT22;10528;52.124;5.196;2023-02-02T11:49:05;10.00;99.90
20735;DHT22;10528;52.124;5.196;2023-02-02T11:51:39;9.90;99.90
20735;DHT22;10528;52.124;5.196;2023-02-02T11:54:08;9.90;99.90
20735;DHT22;10528;52.124;5.196;2023-02-02T11:56:48;9.90;99.90
20735;DHT22;10528;52.124;5.196;2023-02-02T11:59:29;9.90;99.90
20735;DHT22;10528;52.124;5.196;2023-02-02T12:02:27;9.80;99.90
20735;DHT22;10528;52.124;5.196;2023-02-02T12:07:47;9.90;99.90
20735;DHT22;10528;52.124;5.196;2023-02-02T12:13:47;9.80;99.90
20735;DHT22;10528;52.124;5.196;2023-02-02T12:34:11;9.80;99.90
20735;DHT22;10528;52.124;5.196;2023-02-02T12:49:21;9.70;99.90
20735;DHT22;10528;52.124;5.196;2023-02-02T12:52:12;9.70;99.90
20735;DHT22;10528;52.124;5.196;2023-02-02T13:04:01;9.60;99.90
20735;DHT22;10528;52.124;5.196;2023-02-02T13:06:51;9.60;99.90
20735;DHT22;10528;52.124;5.196;2023-02-02T13:12:15;9.50;99.90
20735;DHT22;10528;52.124;5.196;2023-02-02T13:14:51;9.50;99.90
20735;DHT22;10528;52.124;5.196;2023-02-02T13:17:25;9.50;99.90
20735;DHT22;10528;52.124;5.196;2023-02-02T13:20:52;9.50;99.90
20735;DHT22;10528;52.124;5.196;2023-02-02T13:23:24;9.40;99.90
20735;DHT22;10528;52.124;5.196;2023-02-02T13:29:04;9.40;99.90
20735;DHT22;10528;52.124;5.196;2023-02-02T13:31:41;9.50;99.90
20735;DHT22;10528;52.124;5.196;2023-02-02T13:34:39;9.40;99.90
20735;DHT22;10528;52.124;5.196;2023-02-02T13:40:19;9.50;99.90
20735;DHT22;10528;52.124;5.196;2023-02-02T13:48:27;9.20;99.90
20735;DHT22;10528;52.124;5.196;2023-02-02T13:54:15;9.30;99.90
20735;DHT22;10528;52.124;5.196;2023-02-02T13:57:47;9.30;99.90
20735;DHT22;10528;52.124;5.196;2023-02-02T14:00:24;9.30;99.90
20735;DHT22;10528;52.124;5.196;2023-02-02T14:02:59;9.40;99.90
20735;DHT22;10528;52.124;5.196;2023-02-02T14:05:34;9.20;99.90
20735;DHT22;10528;52.124;5.196;2023-02-02T14:10:57;9.30;99.90
20735;DHT22;10528;52.124;5.196;2023-02-02T14:13:47;9.40;99.90
20735;DHT22;10528;52.124;5.196;2023-02-02T14:19:05;9.40;99.90
20735;DHT22;10528;52.124;5.196;2023-02-02T14:26:53;9.30;99.90
20735;DHT22;10528;52.124;5.196;2023-02-02T14:37:55;9.20;99.90
20735;DHT22;10528;52.124;5.196;2023-02-02T14:40:54;9.10;99.90
20735;DHT22;10528;52.124;5.196;2023-02-02T14:44:05;9.20;99.90
20735;DHT22;10528;52.124;5.196;2023-02-02T14:46:38;9.20;99.90
20735;DHT22;10528;52.124;5.196;2023-02-02T14:49:09;9.30;99.90
20735;DHT22;10528;52.124;5.196;2023-02-02T14:51:52;9.20;99.90
20735;DHT22;10528;52.124;5.196;2023-02-02T14:54:36;9.20;99.90
20735;DHT22;10528;52.124;5.196;2023-02-02T14:57:22;9.20;99.90
20735;DHT22;10528;52.124;5.196;2023-02-02T14:59:53;9.20;99.90
20735;DHT22;10528;52.124;5.196;2023-02-02T15:08:25;9.30;99.90
20735;DHT22;10528;52.124;5.196;2023-02-02T15:10:59;9.30;99.90
20735;DHT22;10528;52.124;5.196;2023-02-02T15:13:55;9.30;99.90
20735;DHT22;10528;52.124;5.196;2023-02-02T15:16:34;9.30;99.90
20735;DHT22;10528;52.124;5.196;2023-02-02T15:19:14;9.30;99.90
20735;DHT22;10528;52.124;5.196;2023-02-02T15:21:48;9.30;99.90
20735;DHT22;10528;52.124;5.196;2023-02-02T15:24:23;9.30;99.90
20735;DHT22;10528;52.124;5.196;2023-02-02T15:26:53;9.20;99.90
20735;DHT22;10528;52.124;5.196;2023-02-02T15:29:38;9.30;99.90
20735;DHT22;10528;52.124;5.196;2023-02-02T15:32:14;9.30;99.90
20735;DHT22;10528;52.124;5.196;2023-02-02T15:34:53;9.20;99.90
20735;DHT22;10528;52.124;5.196;2023-02-02T15:37:39;9.20;99.90
20735;DHT22;10528;52.124;5.196;2023-02-02T15:40:15;9.20;99.90
20735;DHT22;10528;52.124;5.196;2023-02-02T15:42:53;9.30;99.90
20735;DHT22;10528;52.124;5.196;2023-02-02T15:47:56;9.30;99.90
20735;DHT22;10528;52.124;5.196;2023-02-02T15:50:24;9.20;99.90
20735;DHT22;10528;52.124;5.196;2023-02-02T15:52:53;9.20;99.90
20735;DHT22;10528;52.124;5.196;2023-02-02T15:55:31;9.20;99.90
20735;DHT22;10528;52.124;5.196;2023-02-02T15:58:00;9.30;99.90
20735;DHT22;10528;52.124;5.196;2023-02-02T16:00:32;9.30;99.90
20735;DHT22;10528;52.124;5.196;2023-02-02T16:03:05;9.30;99.90
20735;DHT22;10528;52.124;5.196;2023-02-02T16:05:44;9.20;99.90
20735;DHT22;10528;52.124;5.196;2023-02-02T16:08:20;9.20;99.90
20735;DHT22;10528;52.124;5.196;2023-02-02T16:11:12;9.20;99.90
20735;DHT22;10528;52.124;5.196;2023-02-02T16:13:44;9.20;99.90
20735;DHT22;10528;52.124;5.196;2023-02-02T16:16:32;9.20;99.90
20735;DHT22;10528;52.124;5.196;2023-02-02T16:19:21;9.20;99.90
20735;DHT22;10528;52.124;5.196;2023-02-02T16:22:06;9.20;99.90
20735;DHT22;10528;52.124;5.196;2023-02-02T16:24:43;9.20;99.90
20735;DHT22;10528;52.124;5.196;2023-02-02T16:27:20;9.30;99.90
20735;DHT22;10528;52.124;5.196;2023-02-02T16:29:49;9.20;99.90
20735;DHT22;10528;52.124;5.196;2023-02-02T16:32:36;9.30;99.90
20735;DHT22;10528;52.124;5.196;2023-02-02T16:38:12;9.30;99.90
20735;DHT22;10528;52.124;5.196;2023-02-02T16:40:39;9.30;99.90
20735;DHT22;10528;52.124;5.196;2023-02-02T16:43:16;9.20;99.90
20735;DHT22;10528;52.124;5.196;2023-02-02T16:45:52;9.30;99.90
20735;DHT22;10528;52.124;5.196;2023-02-02T16:48:26;9.20;99.90
20735;DHT22;10528;52.124;5.196;2023-02-02T16:51:28;9.20;99.90
20735;DHT22;10528;52.124;5.196;2023-02-02T16:56:37;9.30;99.90
20735;DHT22;10528;52.124;5.196;2023-02-02T16:59:21;9.30;99.90
20735;DHT22;10528;52.124;5.196;2023-02-02T17:01:56;9.30;99.90
20735;DHT22;10528;52.124;5.196;2023-02-02T17:04:49;9.30;99.90
20735;DHT22;10528;52.124;5.196;2023-02-02T17:07:21;9.30;99.90
20735;DHT22;10528;52.124;5.196;2023-02-02T17:09:49;9.30;99.90
20735;DHT22;10528;52.124;5.196;2023-02-02T17:17:47;9.40;99.90
20735;DHT22;10528;52.124;5.196;2023-02-02T17:20:18;9.40;99.90
20735;DHT22;10528;52.124;5.196;2023-02-02T17:22:55;9.40;99.90
20735;DHT22;10528;52.124;5.196;2023-02-02T17:25:29;9.30;99.90
20735;DHT22;10528;52.124;5.196;2023-02-02T17:28:10;9.30;99.90
20735;DHT22;10528;52.124;5.196;2023-02-02T17:30:40;9.30;99.90
20735;DHT22;10528;52.124;5.196;2023-02-02T17:33:11;9.30;99.90
20735;DHT22;10528;52.124;5.196;2023-02-02T17:35:45;9.30;99.90
20735;DHT22;10528;52.124;5.196;2023-02-02T17:38:23;9.40;99.90
20735;DHT22;10528;52.124;5.196;2023-02-02T17:40:51;9.30;99.90
20735;DHT22;10528;52.124;5.196;2023-02-02T17:43:20;9.40;99.90
20735;DHT22;10528;52.124;5.196;2023-02-02T17:45:47;9.40;99.90
20735;DHT22;10528;52.124;5.196;2023-02-02T17:48:14;9.40;99.90
20735;DHT22;10528;52.124;5.196;2023-02-02T17:50:42;9.40;99.90
20735;DHT22;10528;52.124;5.196;2023-02-02T17:53:11;9.40;99.90
20735;DHT22;10528;52.124;5.196;2023-02-02T17:55:42;9.40;99.90
20735;DHT22;10528;52.124;5.196;2023-02-02T17:58:11;9.40;99.90
20735;DHT22;10528;52.124;5.196;2023-02-02T18:00:40;9.40;99.90
20735;DHT22;10528;52.124;5.196;2023-02-02T18:03:09;9.40;99.90
20735;DHT22;10528;52.124;5.196;2023-02-02T18:05:39;9.40;99.90
20735;DHT22;10528;52.124;5.196;2023-02-02T18:08:12;9.40;99.90
20735;DHT22;10528;52.124;5.196;2023-02-02T18:10:40;9.30;99.90
20735;DHT22;10528;52.124;5.196;2023-02-02T18:13:16;9.40;99.90
20735;DHT22;10528;52.124;5.196;2023-02-02T18:15:45;9.40;99.90
20735;DHT22;10528;52.124;5.196;2023-02-02T18:18:13;9.40;99.90
20735;DHT22;10528;52.124;5.196;2023-02-02T18:20:44;9.40;99.90
20735;DHT22;10528;52.124;5.196;2023-02-02T18:23:14;9.50;99.90
20735;DHT22;10528;52.124;5.196;2023-02-02T18:25:43;9.40;99.90
20735;DHT22;10528;52.124;5.196;2023-02-02T18:28:10;9.50;99.90
20735;DHT22;10528;52.124;5.196;2023-02-02T18:30:38;9.50;99.90
20735;DHT22;10528;52.124;5.196;2023-02-02T18:33:07;9.40;99.90
20735;DHT22;10528;52.124;5.196;2023-02-02T18:35:42;9.40;99.90
20735;DHT22;10528;52.124;5.196;2023-02-02T18:38:10;9.50;99.90
20735;DHT22;10528;52.124;5.196;2023-02-02T18:40:38;9.50;99.90
20735;DHT22;10528;52.124;5.196;2023-02-02T18:43:05;9.50;99.90
20735;DHT22;10528;52.124;5.196;2023-02-02T18:45:32;9.50;99.90
20735;DHT22;10528;52.124;5.196;2023-02-02T18:47:59;9.50;99.90
20735;DHT22;10528;52.124;5.196;2023-02-02T18:50:26;9.50;99.90
20735;DHT22;10528;52.124;5.196;2023-02-02T18:52:53;9.50;99.90
20735;DHT22;10528;52.124;5.196;2023-02-02T18:55:19;9.50;99.90
20735;DHT22;10528;52.124;5.196;2023-02-02T18:57:47;9.50;99.90
20735;DHT22;10528;52.124;5.196;2023-02-02T19:00:14;9.50;99.90
20735;DHT22;10528;52.124;5.196;2023-02-02T19:02:41;9.50;99.90
20735;DHT22;10528;52.124;5.196;2023-02-02T19:05:08;9.50;99.90